Terminal Aerodrome Forecast
Issued by NWS Cleveland, OH

Home | Current Version | Previous Version | Text Only | Print | Product List | Glossary On
Versions: 1 2 3 4 5 6 7 8 9 10 11 12 13 14 15 16 17 18 19 20 21 22 23 24 25 26
000
FTUS41 KCLE 181700
TAFYNG
TAF
KYNG 181738Z 1818/1918 25008KT 4SM -SN OVC015
     FM190000 27006KT 4SM -SN BR OVC015
      TEMPO 1900/1904 2SM -SN BR
     FM190700 28005KT P6SM OVC015
     FM191300 30005KT P6SM OVC012=

USA.gov is the U.S. government's official web portal to all federal, state and local government web resources and services.